Time;durP1;ratioP1;P1;durP2;ratioP2;P2;SDS_P1;SDS_P2;PMS_P1;PMS_P2;Temp;Humidity;BMP_temperature;BMP_pressure;BME280_temperature;BME280_humidity;BME280_pressure;Samples;Min_cycle;Max_cycle;Signal;HPM_P1;HPM_P2
2022/01/12 00:01:39;;;;;;;12.75;6.63;;;;;;;;;;5092839;28;20024;-76
2022/01/12 00:04:07;;;;;;;11.13;6.35;;;;;;;;;;5093299;28;20020;-76
2022/01/12 00:06:33;;;;;;;13.30;6.65;;;;;;;;;;5093221;28;20095;-76
2022/01/12 00:09:05;;;;;;;10.60;6.03;;;;;;;;;;5092627;28;20438;-76
2022/01/12 00:11:32;;;;;;;11.80;6.45;;;;;;;;;;5093352;28;20059;-76
2022/01/12 00:13:58;;;;;;;12.27;6.13;;;;;;;;;;5093416;28;20031;-76
2022/01/12 00:16:24;;;;;;;13.27;6.65;;;;;;;;;;5092819;28;20055;-76
2022/01/12 00:18:50;;;;;;;12.25;6.80;;;;;;;;;;5093034;28;20023;-77
2022/01/12 00:21:16;;;;;;;13.13;7.13;;;;;;;;;;5093106;28;20035;-76
2022/01/12 00:23:43;;;;;;;10.93;6.45;;;;;;;;;;5093326;28;20020;-76
2022/01/12 00:26:13;;;;;;;16.10;6.47;;;;;;;;;;5097288;28;20035;-76
2022/01/12 00:34:11;;;;;;;10.43;5.53;;;;;;;;;;5097023;28;20043;-75
2022/01/12 00:36:38;;;;;;;11.57;6.72;;;;;;;;;;5096176;28;20028;-75
2022/01/12 00:39:06;;;;;;;14.35;7.70;;;;;;;;;;5096664;28;20032;-75
2022/01/12 00:41:33;;;;;;;11.35;6.00;;;;;;;;;;5097040;28;20028;-76
2022/01/12 00:44:00;;;;;;;9.77;5.47;;;;;;;;;;5096067;28;20032;-75
2022/01/12 00:46:30;;;;;;;12.80;5.72;;;;;;;;;;5096463;28;20491;-75
2022/01/12 00:48:58;;;;;;;11.80;6.05;;;;;;;;;;5096510;28;20379;-76
2022/01/12 00:51:30;;;;;;;13.52;6.30;;;;;;;;;;5095863;28;20111;-76
2022/01/12 00:53:57;;;;;;;13.63;6.57;;;;;;;;;;5095160;28;20024;-75
2022/01/12 00:56:23;;;;;;;10.85;6.10;;;;;;;;;;5096201;28;20033;-75
2022/01/12 00:58:50;;;;;;;12.77;6.60;;;;;;;;;;5095846;28;20067;-75
2022/01/12 01:01:17;;;;;;;12.35;6.35;;;;;;;;;;5096258;28;20046;-76
2022/01/12 01:03:43;;;;;;;12.73;6.10;;;;;;;;;;5096193;28;20012;-76
2022/01/12 01:06:11;;;;;;;17.60;7.45;;;;;;;;;;5095827;28;20059;-76
2022/01/12 01:08:38;;;;;;;11.88;5.90;;;;;;;;;;5095793;28;20101;-76
2022/01/12 01:11:04;;;;;;;13.95;6.30;;;;;;;;;;5094261;28;20040;-75
2022/01/12 01:13:54;;;;;;;12.13;6.22;;;;;;;;;;5096028;28;20099;-75
2022/01/12 01:16:27;;;;;;;13.18;6.53;;;;;;;;;;5096035;28;20388;-75
2022/01/12 01:27:08;;;;;;;14.07;6.78;;;;;;;;;;5095360;28;20077;-75
2022/01/12 01:29:34;;;;;;;16.80;8.48;;;;;;;;;;5095620;28;20510;-75
2022/01/12 01:32:00;;;;;;;17.02;8.35;;;;;;;;;;5095179;28;20032;-75
2022/01/12 01:34:28;;;;;;;13.93;8.25;;;;;;;;;;5095577;28;20020;-76
2022/01/12 01:36:55;;;;;;;12.27;7.00;;;;;;;;;;5095029;28;20054;-76
2022/01/12 01:39:23;;;;;;;16.30;7.47;;;;;;;;;;5095014;28;20012;-76
2022/01/12 01:41:52;;;;;;;14.65;7.25;;;;;;;;;;5095421;28;20024;-76
2022/01/12 01:54:47;;;;;;;18.65;9.45;;;;;;;;;;5095026;28;20240;-75
2022/01/12 01:57:14;;;;;;;15.82;7.90;;;;;;;;;;5095096;28;20384;-74
2022/01/12 01:59:40;;;;;;;14.68;6.65;;;;;;;;;;5095449;28;20430;-75
2022/01/12 02:02:06;;;;;;;14.63;7.43;;;;;;;;;;5094619;28;20047;-76
2022/01/12 02:04:33;;;;;;;16.02;7.68;;;;;;;;;;5095255;28;20027;-76
2022/01/12 02:06:59;;;;;;;14.68;7.25;;;;;;;;;;5095206;28;20028;-76
2022/01/12 02:09:26;;;;;;;13.38;6.43;;;;;;;;;;5094286;28;20062;-76
2022/01/12 02:11:53;;;;;;;12.13;7.35;;;;;;;;;;5094872;28;20055;-75
2022/01/12 02:14:20;;;;;;;11.57;5.88;;;;;;;;;;5094651;28;20399;-76
2022/01/12 02:16:58;;;;;;;12.80;6.50;;;;;;;;;;5094996;28;20095;-75
2022/01/12 02:36:10;;;;;;;12.95;5.75;;;;;;;;;;5094092;28;20036;-75
2022/01/12 02:41:22;;;;;;;12.70;6.65;;;;;;;;;;5094332;28;20553;-75
2022/01/12 02:54:53;;;;;;;12.95;7.20;;;;;;;;;;5094057;28;20028;-75
2022/01/12 02:57:20;;;;;;;13.65;6.60;;;;;;;;;;5093782;28;20020;-74
2022/01/12 03:00:08;;;;;;;12.75;6.70;;;;;;;;;;5093897;28;20153;-74
2022/01/12 03:02:39;;;;;;;12.27;7.25;;;;;;;;;;5093869;28;20036;-75
2022/01/12 03:07:39;;;;;;;11.88;6.85;;;;;;;;;;5093795;28;20035;-75
2022/01/12 03:10:06;;;;;;;13.52;6.60;;;;;;;;;;5093670;28;20072;-75
2022/01/12 03:12:32;;;;;;;13.35;6.60;;;;;;;;;;5093381;28;20020;-75
2022/01/12 03:14:59;;;;;;;13.32;6.80;;;;;;;;;;5093979;28;20024;-75
2022/01/12 03:17:25;;;;;;;13.32;7.18;;;;;;;;;;5092003;28;20081;-75
2022/01/12 03:19:51;;;;;;;14.60;7.80;;;;;;;;;;5092470;28;20421;-75
2022/01/12 03:22:17;;;;;;;10.98;6.18;;;;;;;;;;5093716;28;20020;-75
2022/01/12 03:24:43;;;;;;;14.88;7.43;;;;;;;;;;5093309;28;20442;-75
2022/01/12 03:27:13;;;;;;;15.48;7.45;;;;;;;;;;5093600;28;20094;-75
2022/01/12 03:29:42;;;;;;;12.68;6.25;;;;;;;;;;5093690;28;20020;-74
2022/01/12 03:32:11;;;;;;;13.60;7.50;;;;;;;;;;5093145;28;20020;-74
2022/01/12 03:34:40;;;;;;;14.65;6.57;;;;;;;;;;5093501;28;20051;-74
2022/01/12 03:37:28;;;;;;;12.57;6.63;;;;;;;;;;5093514;28;20024;-74
2022/01/12 03:39:54;;;;;;;13.15;7.32;;;;;;;;;;5093046;28;20039;-74
2022/01/12 03:42:20;;;;;;;14.73;6.68;;;;;;;;;;5093332;28;20020;-75
2022/01/12 03:44:47;;;;;;;12.38;7.13;;;;;;;;;;5093325;28;20028;-75
2022/01/12 03:47:15;;;;;;;13.73;6.78;;;;;;;;;;5093086;28;20099;-75
2022/01/12 03:49:41;;;;;;;14.20;6.57;;;;;;;;;;5093391;28;20017;-76
2022/01/12 03:52:07;;;;;;;13.65;6.85;;;;;;;;;;5093614;28;20094;-75
2022/01/12 03:54:34;;;;;;;14.13;6.20;;;;;;;;;;5092962;28;20103;-75
2022/01/12 03:57:00;;;;;;;14.07;6.93;;;;;;;;;;5093243;28;20149;-74
2022/01/12 03:59:26;;;;;;;16.73;7.20;;;;;;;;;;5095451;28;20017;-74
2022/01/12 04:01:52;;;;;;;11.45;6.55;;;;;;;;;;5096840;28;20047;-74
2022/01/12 04:04:24;;;;;;;15.73;6.18;;;;;;;;;;5097264;28;20028;-74
2022/01/12 04:09:35;;;;;;;15.25;6.70;;;;;;;;;;5097057;28;20134;-75
2022/01/12 04:12:01;;;;;;;13.73;6.93;;;;;;;;;;5097128;28;20032;-75
2022/01/12 04:14:28;;;;;;;21.02;8.05;;;;;;;;;;5096679;28;20091;-75
2022/01/12 04:16:54;;;;;;;14.60;6.95;;;;;;;;;;5097274;28;20032;-75
2022/01/12 04:19:20;;;;;;;12.75;7.25;;;;;;;;;;5097042;28;20456;-74
2022/01/12 04:21:49;;;;;;;14.93;6.72;;;;;;;;;;5096537;28;20030;-74
2022/01/12 04:24:15;;;;;;;15.27;6.90;;;;;;;;;;5097050;28;20031;-75
2022/01/12 04:26:42;;;;;;;11.75;5.65;;;;;;;;;;5096818;28;20057;-75
2022/01/12 04:29:08;;;;;;;13.18;6.50;;;;;;;;;;5096426;28;20027;-75
2022/01/12 04:31:35;;;;;;;12.27;7.22;;;;;;;;;;5096685;28;20043;-75
2022/01/12 04:34:01;;;;;;;17.30;7.40;;;;;;;;;;5096746;28;20059;-74
2022/01/12 04:36:27;;;;;;;14.32;6.63;;;;;;;;;;5096217;28;20476;-74
2022/01/12 04:38:54;;;;;;;14.82;5.95;;;;;;;;;;5096940;28;20420;-75
2022/01/12 04:41:21;;;;;;;12.23;5.93;;;;;;;;;;5097116;28;20363;-75
2022/01/12 04:43:48;;;;;;;15.25;7.50;;;;;;;;;;5096150;28;20016;-74
2022/01/12 04:48:54;;;;;;;12.57;6.57;;;;;;;;;;5096856;28;20468;-75
2022/01/12 04:51:22;;;;;;;13.88;6.75;;;;;;;;;;5096743;28;20077;-75
2022/01/12 04:53:48;;;;;;;17.60;7.63;;;;;;;;;;5096617;28;20024;-75
2022/01/12 04:56:14;;;;;;;13.98;7.20;;;;;;;;;;5095904;28;20089;-74
2022/01/12 04:58:41;;;;;;;12.38;6.63;;;;;;;;;;5096410;28;20074;-74
2022/01/12 05:01:14;;;;;;;13.93;7.70;;;;;;;;;;5096259;28;20103;-74
2022/01/12 05:09:16;;;;;;;14.48;7.28;;;;;;;;;;5096068;28;20133;-77
2022/01/12 05:14:35;;;;;;;11.82;5.80;;;;;;;;;;5096645;28;20023;-77
2022/01/12 05:17:01;;;;;;;14.15;6.90;;;;;;;;;;5095876;28;20035;-80
2022/01/12 05:19:27;;;;;;;13.10;7.28;;;;;;;;;;5096188;28;20077;-75
2022/01/12 05:21:53;;;;;;;12.45;6.20;;;;;;;;;;5096135;28;20024;-76
2022/01/12 05:24:20;;;;;;;14.23;7.65;;;;;;;;;;5095706;28;20430;-78
2022/01/12 05:26:46;;;;;;;22.05;8.85;;;;;;;;;;5095887;28;20028;-77
2022/01/12 05:29:13;;;;;;;17.85;9.25;;;;;;;;;;5095801;28;20434;-77
2022/01/12 05:31:39;;;;;;;18.35;9.05;;;;;;;;;;5095133;28;20058;-77
2022/01/12 05:34:06;;;;;;;15.73;7.25;;;;;;;;;;5095620;28;20366;-76
2022/01/12 05:36:32;;;;;;;16.92;7.63;;;;;;;;;;5095727;28;20036;-77
2022/01/12 05:38:59;;;;;;;15.55;6.78;;;;;;;;;;5095240;28;20027;-75
2022/01/12 05:41:26;;;;;;;15.13;8.27;;;;;;;;;;5094232;28;20024;-76
2022/01/12 05:43:52;;;;;;;14.95;6.60;;;;;;;;;;5095487;28;20027;-76
2022/01/12 05:46:23;;;;;;;17.02;8.15;;;;;;;;;;5095001;28;20016;-76
2022/01/12 05:51:34;;;;;;;14.73;6.65;;;;;;;;;;5095431;28;20047;-76
2022/01/12 05:54:01;;;;;;;13.80;7.30;;;;;;;;;;5094865;28;20043;-74
2022/01/12 05:56:27;;;;;;;15.55;7.82;;;;;;;;;;5095167;28;20021;-74
2022/01/12 05:58:53;;;;;;;14.30;7.32;;;;;;;;;;5093925;28;20023;-74
2022/01/12 06:01:20;;;;;;;13.35;6.88;;;;;;;;;;5094775;28;20020;-76
2022/01/12 06:03:46;;;;;;;16.83;7.32;;;;;;;;;;5095144;28;20523;-77
2022/01/12 06:06:12;;;;;;;19.38;9.60;;;;;;;;;;5094582;28;20026;-77
2022/01/12 06:08:39;;;;;;;24.13;10.60;;;;;;;;;;5094937;28;20403;-75
2022/01/12 06:11:06;;;;;;;22.90;10.45;;;;;;;;;;5094873;28;20111;-74
2022/01/12 06:13:32;;;;;;;29.08;11.98;;;;;;;;;;5094618;28;20028;-75
2022/01/12 06:15:58;;;;;;;27.63;12.05;;;;;;;;;;5094935;28;20020;-77
2022/01/12 06:18:24;;;;;;;19.67;9.88;;;;;;;;;;5094736;28;20032;-75
2022/01/12 06:20:51;;;;;;;18.92;9.77;;;;;;;;;;5094253;28;20077;-75
2022/01/12 06:23:17;;;;;;;18.75;7.97;;;;;;;;;;5094575;28;20361;-77
2022/01/12 06:25:44;;;;;;;19.73;8.45;;;;;;;;;;5094663;28;20052;-74
2022/01/12 06:31:10;;;;;;;14.88;8.60;;;;;;;;;;5094449;28;20062;-76
2022/01/12 06:33:40;;;;;;;13.70;7.65;;;;;;;;;;5094695;28;20095;-76
2022/01/12 06:36:06;;;;;;;16.58;8.50;;;;;;;;;;5093999;28;20024;-74
2022/01/12 06:38:33;;;;;;;16.08;8.38;;;;;;;;;;5094449;28;20066;-76
2022/01/12 06:40:59;;;;;;;16.33;9.10;;;;;;;;;;5094397;28;20465;-77
2022/01/12 06:43:27;;;;;;;18.17;9.20;;;;;;;;;;5093871;28;20028;-75
2022/01/12 06:45:54;;;;;;;20.23;8.95;;;;;;;;;;5094431;28;20031;-75
2022/01/12 06:48:20;;;;;;;15.38;9.00;;;;;;;;;;5093951;28;20024;-76
2022/01/12 06:50:47;;;;;;;17.70;9.13;;;;;;;;;;5092826;28;20407;-76
2022/01/12 06:53:13;;;;;;;21.77;10.13;;;;;;;;;;5094233;28;20020;-76
2022/01/12 06:55:39;;;;;;;21.48;10.25;;;;;;;;;;5092416;28;20104;-76
2022/01/12 06:58:05;;;;;;;17.33;9.82;;;;;;;;;;5094109;28;20020;-74
2022/01/12 07:00:32;;;;;;;20.48;10.52;;;;;;;;;;5094191;28;20461;-76
2022/01/12 07:02:58;;;;;;;16.45;7.70;;;;;;;;;;5093612;28;20028;-75
2022/01/12 07:05:24;;;;;;;17.30;8.35;;;;;;;;;;5094299;28;20031;-76
2022/01/12 07:07:50;;;;;;;20.52;10.00;;;;;;;;;;5093721;28;20591;-75
2022/01/12 07:10:16;;;;;;;19.10;8.80;;;;;;;;;;5092211;28;20032;-76
2022/01/12 07:12:43;;;;;;;19.17;9.52;;;;;;;;;;5094161;28;20099;-75
2022/01/12 07:15:09;;;;;;;18.85;8.88;;;;;;;;;;5094143;28;20037;-76
2022/01/12 07:17:35;;;;;;;16.67;8.32;;;;;;;;;;5093441;28;20034;-75
2022/01/12 07:20:03;;;;;;;17.40;8.30;;;;;;;;;;5093858;28;20020;-77
2022/01/12 07:22:30;;;;;;;19.75;8.43;;;;;;;;;;5092765;28;20028;-77
2022/01/12 07:24:56;;;;;;;14.27;7.35;;;;;;;;;;5093615;28;20020;-77
2022/01/12 07:27:22;;;;;;;17.20;9.60;;;;;;;;;;5093638;28;20020;-75
2022/01/12 07:29:49;;;;;;;18.02;7.78;;;;;;;;;;5093888;28;20119;-76
2022/01/12 07:32:15;;;;;;;17.23;9.43;;;;;;;;;;5093191;28;20036;-76
2022/01/12 07:34:41;;;;;;;16.17;8.40;;;;;;;;;;5091738;28;20385;-75
2022/01/12 07:37:07;;;;;;;14.77;7.90;;;;;;;;;;5093857;28;20028;-76
2022/01/12 07:39:33;;;;;;;21.67;8.98;;;;;;;;;;5093128;28;20031;-75
2022/01/12 07:42:00;;;;;;;17.00;8.30;;;;;;;;;;5093504;28;20032;-76
2022/01/12 07:44:26;;;;;;;17.48;8.63;;;;;;;;;;5093499;28;20027;-76
2022/01/12 07:46:52;;;;;;;15.85;7.90;;;;;;;;;;5093036;28;20020;-77
2022/01/12 07:49:18;;;;;;;13.27;6.63;;;;;;;;;;5093496;28;20099;-77
2022/01/12 07:51:44;;;;;;;14.35;6.75;;;;;;;;;;5093049;28;20038;-76
2022/01/12 07:54:11;;;;;;;15.18;7.43;;;;;;;;;;5093565;28;20028;-77
2022/01/12 07:56:37;;;;;;;16.02;8.32;;;;;;;;;;5093631;28;20078;-76
2022/01/12 07:59:03;;;;;;;19.13;9.15;;;;;;;;;;5092957;28;20093;-75
2022/01/12 08:01:29;;;;;;;14.80;6.85;;;;;;;;;;5093345;28;20052;-76
2022/01/12 08:03:55;;;;;;;14.95;7.68;;;;;;;;;;5093259;28;20095;-77
2022/01/12 08:06:22;;;;;;;18.80;9.32;;;;;;;;;;5092848;28;20515;-77
2022/01/12 08:08:48;;;;;;;14.88;7.40;;;;;;;;;;5093100;28;20105;-76
2022/01/12 08:11:14;;;;;;;13.73;7.55;;;;;;;;;;5093040;28;20093;-77
2022/01/12 08:13:42;;;;;;;13.65;7.38;;;;;;;;;;5091600;28;20077;-76
2022/01/12 08:16:09;;;;;;;14.77;7.10;;;;;;;;;;5093296;28;20020;-75
2022/01/12 08:18:35;;;;;;;17.58;8.00;;;;;;;;;;5093208;28;20023;-76
2022/01/12 08:21:04;;;;;;;17.77;8.63;;;;;;;;;;5092942;28;20421;-76
2022/01/12 08:23:30;;;;;;;19.88;9.50;;;;;;;;;;5093664;28;20025;-76
2022/01/12 08:25:57;;;;;;;17.73;8.25;;;;;;;;;;5093026;28;20024;-75
2022/01/12 08:28:23;;;;;;;17.45;8.80;;;;;;;;;;5092581;28;20024;-75
2022/01/12 08:30:49;;;;;;;16.70;8.82;;;;;;;;;;5093070;28;20032;-76
2022/01/12 08:33:16;;;;;;;21.15;8.80;;;;;;;;;;5092956;28;20024;-75
2022/01/12 08:35:43;;;;;;;24.65;11.35;;;;;;;;;;5092741;28;20089;-76
2022/01/12 08:38:09;;;;;;;23.95;11.02;;;;;;;;;;5093226;28;20051;-75
2022/01/12 08:40:39;;;;;;;22.65;9.75;;;;;;;;;;5092994;28;20069;-76
2022/01/12 08:43:06;;;;;;;19.90;9.70;;;;;;;;;;5092486;28;20035;-75
2022/01/12 08:45:32;;;;;;;18.00;9.27;;;;;;;;;;5093407;28;20050;-77
2022/01/12 08:47:59;;;;;;;18.05;7.82;;;;;;;;;;5096362;28;20073;-76
2022/01/12 08:50:25;;;;;;;23.50;10.43;;;;;;;;;;5094916;28;20128;-76
2022/01/12 08:52:51;;;;;;;23.27;11.57;;;;;;;;;;5094955;28;20035;-76
2022/01/12 08:55:18;;;;;;;20.55;10.35;;;;;;;;;;5095849;28;20031;-74
2022/01/12 08:57:45;;;;;;;17.92;7.25;;;;;;;;;;5096069;28;20032;-74
2022/01/12 09:00:12;;;;;;;19.90;9.70;;;;;;;;;;5096392;28;20017;-74
2022/01/12 09:02:38;;;;;;;15.73;8.68;;;;;;;;;;5095685;28;20028;-75
2022/01/12 09:05:05;;;;;;;13.18;6.28;;;;;;;;;;5096010;28;20537;-75
2022/01/12 09:07:32;;;;;;;17.27;8.98;;;;;;;;;;5096185;28;20032;-76
2022/01/12 09:09:58;;;;;;;20.10;9.95;;;;;;;;;;5095388;28;20051;-76
2022/01/12 09:12:25;;;;;;;21.50;10.85;;;;;;;;;;5095927;28;20040;-75
2022/01/12 09:14:52;;;;;;;18.13;9.38;;;;;;;;;;5096025;28;20463;-76
2022/01/12 09:17:20;;;;;;;16.10;8.93;;;;;;;;;;5095453;28;20016;-74
2022/01/12 09:19:47;;;;;;;17.05;8.40;;;;;;;;;;5095824;28;20051;-76
2022/01/12 09:22:13;;;;;;;17.02;8.93;;;;;;;;;;5096023;28;20388;-75
2022/01/12 09:24:42;;;;;;;18.27;9.38;;;;;;;;;;5095291;28;20093;-75
2022/01/12 09:27:08;;;;;;;20.73;10.18;;;;;;;;;;5096079;28;20364;-74
2022/01/12 09:29:35;;;;;;;21.00;9.73;;;;;;;;;;5095468;28;20032;-75
2022/01/12 09:32:01;;;;;;;15.77;9.43;;;;;;;;;;5095073;28;20134;-74
2022/01/12 09:34:28;;;;;;;16.30;8.43;;;;;;;;;;5095512;28;20016;-73
2022/01/12 09:36:54;;;;;;;18.08;9.55;;;;;;;;;;5095288;28;20036;-75
2022/01/12 09:39:20;;;;;;;17.98;9.40;;;;;;;;;;5095033;28;20016;-75
2022/01/12 09:41:46;;;;;;;18.02;8.20;;;;;;;;;;5095531;28;20027;-75
2022/01/12 09:44:12;;;;;;;16.00;8.77;;;;;;;;;;5094948;28;20033;-74
2022/01/12 09:46:39;;;;;;;20.33;9.65;;;;;;;;;;5095408;28;20036;-74
2022/01/12 09:49:06;;;;;;;25.75;10.43;;;;;;;;;;5095261;28;20020;-74
2022/01/12 09:51:32;;;;;;;16.13;8.73;;;;;;;;;;5094912;28;20035;-74
2022/01/12 09:53:59;;;;;;;17.95;9.85;;;;;;;;;;5093857;28;20024;-74
2022/01/12 09:56:28;;;;;;;19.30;9.45;;;;;;;;;;5094607;28;20020;-75
2022/01/12 09:58:56;;;;;;;22.42;9.48;;;;;;;;;;5093203;28;20561;-75
2022/01/12 10:01:33;;;;;;;23.48;11.82;;;;;;;;;;5094936;28;20085;-75
2022/01/12 10:04:08;;;;;;;21.25;10.70;;;;;;;;;;5095224;28;20024;-75
2022/01/12 10:06:41;;;;;;;12.38;6.80;;;;;;;;;;5094475;28;20526;-75
2022/01/12 10:09:08;;;;;;;14.60;8.18;;;;;;;;;;5094929;28;20044;-76
2022/01/12 10:11:34;;;;;;;15.63;8.13;;;;;;;;;;5094712;28;20046;-74
2022/01/12 10:14:02;;;;;;;17.90;9.02;;;;;;;;;;5094312;28;20078;-74
2022/01/12 10:16:29;;;;;;;22.40;9.68;;;;;;;;;;5094592;28;20031;-74
2022/01/12 10:18:59;;;;;;;15.60;7.85;;;;;;;;;;5094879;28;20035;-73
2022/01/12 10:21:34;;;;;;;13.45;7.88;;;;;;;;;;5094545;28;20020;-73
2022/01/12 10:24:05;;;;;;;15.32;8.10;;;;;;;;;;5094628;28;20043;-73
2022/01/12 10:26:37;;;;;;;13.93;7.30;;;;;;;;;;5094174;28;20094;-74
2022/01/12 10:29:17;;;;;;;19.30;7.57;;;;;;;;;;5093226;28;20048;-74
2022/01/12 10:31:56;;;;;;;14.80;8.05;;;;;;;;;;5094378;28;20039;-74
2022/01/12 10:34:41;;;;;;;16.30;8.63;;;;;;;;;;5094182;28;20031;-74
2022/01/12 10:37:09;;;;;;;15.68;7.93;;;;;;;;;;5094501;28;20024;-74
2022/01/12 10:39:38;;;;;;;15.27;7.03;;;;;;;;;;5094286;28;20024;-74
2022/01/12 10:42:06;;;;;;;14.95;6.85;;;;;;;;;;5085210;28;20024;-74
2022/01/12 10:44:38;;;;;;;16.33;9.80;;;;;;;;;;5089627;28;20028;-73
2022/01/12 10:47:05;;;;;;;15.40;8.30;;;;;;;;;;5089778;28;20488;-73
2022/01/12 10:49:33;;;;;;;15.15;8.15;;;;;;;;;;5089681;28;20596;-71
2022/01/12 10:51:59;;;;;;;17.38;9.02;;;;;;;;;;5081583;28;20403;-72
2022/01/12 10:54:26;;;;;;;18.15;10.65;;;;;;;;;;5089158;28;20024;-72
2022/01/12 10:56:53;;;;;;;14.60;7.35;;;;;;;;;;5090568;28;20047;-72
2022/01/12 10:59:20;;;;;;;23.65;12.30;;;;;;;;;;5090500;28;20016;-72
2022/01/12 11:01:47;;;;;;;25.75;13.05;;;;;;;;;;5089972;28;20028;-75
2022/01/12 11:04:13;;;;;;;20.70;10.30;;;;;;;;;;5090399;28;20016;-74
2022/01/12 11:06:40;;;;;;;21.63;10.05;;;;;;;;;;5090339;28;20028;-78
2022/01/12 11:09:06;;;;;;;17.73;9.30;;;;;;;;;;5088890;28;20048;-75
2022/01/12 11:11:34;;;;;;;18.10;8.70;;;;;;;;;;5088317;28;20043;-74
2022/01/12 11:14:01;;;;;;;27.83;12.93;;;;;;;;;;5088823;28;20472;-73
2022/01/12 11:16:29;;;;;;;17.05;10.00;;;;;;;;;;5088636;28;20414;-73
2022/01/12 11:18:56;;;;;;;16.13;7.13;;;;;;;;;;5089677;28;20131;-73
2022/01/12 11:21:25;;;;;;;20.92;9.73;;;;;;;;;;5090332;28;20428;-73
2022/01/12 11:23:56;;;;;;;14.80;7.68;;;;;;;;;;5090325;28;20027;-72
2022/01/12 11:26:23;;;;;;;13.07;7.78;;;;;;;;;;5088623;28;20485;-74
2022/01/12 11:28:54;;;;;;;14.30;7.57;;;;;;;;;;5089954;28;20060;-74
2022/01/12 11:31:29;;;;;;;18.45;7.78;;;;;;;;;;5091282;28;20032;-74
2022/01/12 11:33:55;;;;;;;24.20;10.32;;;;;;;;;;5091557;28;20020;-74
2022/01/12 11:36:24;;;;;;;22.02;11.25;;;;;;;;;;5092119;28;20016;-73
2022/01/12 11:38:52;;;;;;;17.50;10.45;;;;;;;;;;5091525;28;20020;-73
2022/01/12 11:41:22;;;;;;;19.95;11.57;;;;;;;;;;5093114;28;20107;-74
2022/01/12 11:43:50;;;;;;;13.55;8.20;;;;;;;;;;5092929;28;20046;-75
2022/01/12 11:46:21;;;;;;;16.75;9.48;;;;;;;;;;5091877;28;20031;-76
2022/01/12 11:48:49;;;;;;;16.55;8.82;;;;;;;;;;5093080;28;20032;-75
2022/01/12 11:51:17;;;;;;;20.25;11.27;;;;;;;;;;5092825;28;20042;-72
2022/01/12 11:53:44;;;;;;;21.88;11.02;;;;;;;;;;5091754;28;20028;-72
2022/01/12 11:56:12;;;;;;;21.50;11.18;;;;;;;;;;5092612;28;20036;-74
2022/01/12 11:58:49;;;;;;;20.27;9.43;;;;;;;;;;5091990;28;20034;-75
2022/01/12 12:01:15;;;;;;;18.98;7.50;;;;;;;;;;5091544;28;20099;-74
2022/01/12 12:03:42;;;;;;;17.90;8.75;;;;;;;;;;5091493;28;20024;-75
2022/01/12 12:06:20;;;;;;;20.73;11.63;;;;;;;;;;5090739;28;20028;-75
2022/01/12 12:08:57;;;;;;;12.98;7.75;;;;;;;;;;5092260;28;20128;-74
2022/01/12 12:11:25;;;;;;;19.08;9.50;;;;;;;;;;5092328;28;20448;-74
2022/01/12 12:13:51;;;;;;;23.75;11.95;;;;;;;;;;5092223;28;20020;-74
2022/01/12 12:16:17;;;;;;;21.58;10.63;;;;;;;;;;5093122;28;20028;-74
2022/01/12 12:18:44;;;;;;;20.83;12.98;;;;;;;;;;5093501;28;20034;-74
2022/01/12 12:21:10;;;;;;;23.05;12.02;;;;;;;;;;5095747;28;20058;-73
2022/01/12 12:23:36;;;;;;;22.52;11.50;;;;;;;;;;5096876;28;20096;-74
2022/01/12 12:26:08;;;;;;;21.17;10.23;;;;;;;;;;5096555;28;20081;-74
2022/01/12 12:28:34;;;;;;;18.52;10.32;;;;;;;;;;5097208;28;20484;-73
2022/01/12 12:31:00;;;;;;;18.20;9.73;;;;;;;;;;5096647;28;20032;-73
2022/01/12 12:33:27;;;;;;;13.25;7.55;;;;;;;;;;5096385;28;20031;-73
2022/01/12 12:35:53;;;;;;;17.15;9.32;;;;;;;;;;5096694;28;20031;-73
2022/01/12 12:38:19;;;;;;;19.10;8.73;;;;;;;;;;5096642;28;20038;-74
2022/01/12 12:40:47;;;;;;;15.20;8.70;;;;;;;;;;5096269;28;20024;-74
2022/01/12 12:43:19;;;;;;;18.38;10.93;;;;;;;;;;5095263;28;20052;-74
2022/01/12 12:45:48;;;;;;;18.63;8.93;;;;;;;;;;5096757;28;20020;-74
2022/01/12 12:48:15;;;;;;;17.35;11.13;;;;;;;;;;5096103;28;20048;-74
2022/01/12 12:50:42;;;;;;;20.48;11.93;;;;;;;;;;5096348;28;20020;-75
2022/01/12 12:53:08;;;;;;;16.42;9.98;;;;;;;;;;5096381;28;20095;-74
2022/01/12 12:55:38;;;;;;;21.17;13.02;;;;;;;;;;5094547;28;20035;-73
2022/01/12 12:58:05;;;;;;;16.63;10.00;;;;;;;;;;5096314;28;20032;-75
2022/01/12 13:00:33;;;;;;;18.98;10.25;;;;;;;;;;5096496;28;20035;-73
2022/01/12 13:03:00;;;;;;;13.43;7.63;;;;;;;;;;5095778;28;20061;-74
2022/01/12 13:05:31;;;;;;;18.73;9.50;;;;;;;;;;5096196;28;20020;-76
2022/01/12 13:07:57;;;;;;;16.55;9.65;;;;;;;;;;5095992;28;20472;-77
2022/01/12 13:10:24;;;;;;;16.42;8.98;;;;;;;;;;5095606;28;20060;-77
2022/01/12 13:12:56;;;;;;;15.15;9.38;;;;;;;;;;5096062;28;20024;-74
2022/01/12 13:15:30;;;;;;;13.95;8.57;;;;;;;;;;5094296;28;20046;-74
2022/01/12 13:18:02;;;;;;;14.60;9.05;;;;;;;;;;5095925;28;20104;-74
2022/01/12 13:23:16;;;;;;;13.48;7.65;;;;;;;;;;5095665;28;20057;-73
2022/01/12 13:25:42;;;;;;;14.02;8.20;;;;;;;;;;5095795;28;20076;-74
2022/01/12 13:28:08;;;;;;;13.43;7.10;;;;;;;;;;5094460;28;20027;-75
2022/01/12 13:30:46;;;;;;;15.48;8.60;;;;;;;;;;5095259;28;20476;-75
2022/01/12 13:33:12;;;;;;;17.38;10.73;;;;;;;;;;5095230;28;20024;-74
2022/01/12 13:35:38;;;;;;;16.67;10.95;;;;;;;;;;5095500;28;20031;-74
2022/01/12 13:38:05;;;;;;;21.92;13.35;;;;;;;;;;5095175;28;20480;-75
2022/01/12 13:40:36;;;;;;;16.45;10.02;;;;;;;;;;5095487;28;20107;-74
2022/01/12 13:43:03;;;;;;;18.05;10.23;;;;;;;;;;5095332;28;20020;-74
2022/01/12 13:45:38;;;;;;;15.80;9.40;;;;;;;;;;5095044;28;20028;-74
2022/01/12 13:48:12;;;;;;;15.30;9.63;;;;;;;;;;5095445;28;20030;-74
2022/01/12 13:50:38;;;;;;;18.50;10.10;;;;;;;;;;5094839;28;20115;-75
2022/01/12 13:53:06;;;;;;;18.17;9.20;;;;;;;;;;5095300;28;20032;-74
2022/01/12 13:55:33;;;;;;;22.90;12.40;;;;;;;;;;5095172;28;20522;-74
2022/01/12 13:58:04;;;;;;;19.60;11.20;;;;;;;;;;5094733;28;20062;-74
2022/01/12 14:00:31;;;;;;;16.80;9.32;;;;;;;;;;5093798;28;20153;-75
2022/01/12 14:02:58;;;;;;;20.63;12.75;;;;;;;;;;5095128;28;20016;-74
2022/01/12 14:05:39;;;;;;;19.90;11.60;;;;;;;;;;5094611;28;20609;-75
2022/01/12 14:08:13;;;;;;;21.13;11.80;;;;;;;;;;5094893;28;20016;-74
2022/01/12 14:10:41;;;;;;;18.98;11.55;;;;;;;;;;5094938;28;20166;-74
2022/01/12 14:13:08;;;;;;;22.45;14.43;;;;;;;;;;5094649;28;20018;-74
2022/01/12 14:15:34;;;;;;;22.20;12.15;;;;;;;;;;5094725;28;20028;-75
2022/01/12 14:18:01;;;;;;;18.92;10.50;;;;;;;;;;5093551;28;20099;-74
2022/01/12 14:20:38;;;;;;;23.70;12.43;;;;;;;;;;5094454;28;20024;-74
2022/01/12 14:23:08;;;;;;;22.65;12.30;;;;;;;;;;5094822;28;20028;-74
2022/01/12 14:25:40;;;;;;;33.35;19.02;;;;;;;;;;5094389;28;20039;-74
2022/01/12 14:28:08;;;;;;;31.03;15.97;;;;;;;;;;5094528;28;20063;-74
2022/01/12 14:30:34;;;;;;;26.90;15.35;;;;;;;;;;5094394;28;20036;-74
2022/01/12 14:33:01;;;;;;;30.48;16.95;;;;;;;;;;5094103;28;20024;-74
2022/01/12 14:35:27;;;;;;;24.15;14.18;;;;;;;;;;5092422;28;20031;-74
2022/01/12 14:37:54;;;;;;;25.85;13.75;;;;;;;;;;5093928;28;20056;-73
2022/01/12 14:40:21;;;;;;;27.67;15.23;;;;;;;;;;5093985;28;20024;-74
2022/01/12 14:42:49;;;;;;;21.00;13.43;;;;;;;;;;5094683;28;20383;-73
2022/01/12 14:45:18;;;;;;;18.80;11.07;;;;;;;;;;5094250;28;20024;-74
2022/01/12 14:47:44;;;;;;;20.73;12.15;;;;;;;;;;5093960;28;20055;-74
2022/01/12 14:50:11;;;;;;;23.48;11.85;;;;;;;;;;5094271;28;20044;-74
2022/01/12 14:52:37;;;;;;;32.45;16.50;;;;;;;;;;5094142;28;20028;-75
2022/01/12 14:55:05;;;;;;;26.00;13.52;;;;;;;;;;5093742;28;20027;-74
2022/01/12 14:57:32;;;;;;;21.35;13.32;;;;;;;;;;5094377;28;20028;-73
2022/01/12 14:59:58;;;;;;;23.00;12.77;;;;;;;;;;5094089;28;20128;-73
2022/01/12 15:02:25;;;;;;;22.83;12.73;;;;;;;;;;5093771;28;20020;-75
2022/01/12 15:04:52;;;;;;;22.25;13.05;;;;;;;;;;5092751;28;20437;-74
2022/01/12 15:07:18;;;;;;;26.45;13.43;;;;;;;;;;5092485;28;20380;-70
2022/01/12 15:09:44;;;;;;;27.40;13.38;;;;;;;;;;5093421;28;20135;-74
2022/01/12 15:12:17;;;;;;;24.63;13.88;;;;;;;;;;5093663;28;20052;-73
2022/01/12 15:14:57;;;;;;;18.45;10.20;;;;;;;;;;5093329;28;20504;-75
2022/01/12 15:17:31;;;;;;;25.45;14.10;;;;;;;;;;5093846;28;20032;-74
2022/01/12 15:19:57;;;;;;;28.75;15.60;;;;;;;;;;5093737;28;20060;-75
2022/01/12 15:22:23;;;;;;;29.85;15.27;;;;;;;;;;5093425;28;20024;-75
2022/01/12 15:24:50;;;;;;;33.33;15.45;;;;;;;;;;5093908;28;20160;-74
2022/01/12 15:27:16;;;;;;;19.83;10.93;;;;;;;;;;5093728;28;20538;-73
2022/01/12 15:29:43;;;;;;;17.92;10.45;;;;;;;;;;5093282;28;20082;-74
2022/01/12 15:32:09;;;;;;;20.95;10.55;;;;;;;;;;5093465;28;20047;-74
2022/01/12 15:34:36;;;;;;;25.33;15.88;;;;;;;;;;5093761;28;20020;-74
2022/01/12 15:37:03;;;;;;;24.75;12.60;;;;;;;;;;5093239;28;20024;-74
2022/01/12 15:39:29;;;;;;;19.92;11.70;;;;;;;;;;5093522;28;20020;-75
2022/01/12 15:41:55;;;;;;;23.13;13.10;;;;;;;;;;5093585;28;20028;-75
2022/01/12 15:44:21;;;;;;;21.67;11.90;;;;;;;;;;5093088;28;20145;-74
2022/01/12 15:46:49;;;;;;;22.92;13.95;;;;;;;;;;5092291;28;20093;-74
2022/01/12 15:49:15;;;;;;;21.30;12.85;;;;;;;;;;5093458;28;20376;-75